»·PEaware :: N228Q U76-KSUN

N228Q :: U76-KSUN

FLIGHT INFORMATION

Flight Status: Arrived
Operator: Privately registered:
United States
More flights under this callsign
Pilot: Anonymous 16342 (16342)
Aircraft: BEECH AIRCRAFT BONANZA
(BE35)
More flights by this aircraft type
Origin: U76 Mountain Home Mun
United States
Destination: KSUN Friedman Meml
United States
More flights between these airports :: More routes between these airports
Route: +PRESN
File this flight plan on PilotEdge
Remarks:
Altitude:
(Current/Filed)
11,000ft
Speed:
(Current/Filed)
162kts
Departed: 02-Jan-20 08:07 AM
Arrived: 02-Jan-20 08:42 AM
Distance/Time
Traveled:
66nm/0:34
Distance/Time
To Go:
Arrived

Flight Plot

Page will automatically refresh every two minutes.

Flight plan parsing failed; only flown route is shown


Map Options




Map Legend


Flown Route
Filed Route
Departure Airport
Arrival Airport
Navaid (VOR, NDB)
Fix

Horizontal Profiles

Position Reports

Time Latitude Longitude Heading Altitude Ground
Speed
02-Jan-20 07:53 43.129420 -115.729561 295 3167ft 0kts
02-Jan-20 07:54 43.129671 -115.727470 114 3167ft 13kts
02-Jan-20 07:55 43.128110 -115.723230 106 3167ft 9kts
02-Jan-20 07:56 43.128190 -115.722954 17 3167ft 0kts
02-Jan-20 07:57 43.128192 -115.722953 17 3167ft 0kts
02-Jan-20 07:58 43.128195 -115.722952 17 3167ft 0kts
02-Jan-20 07:59 43.128197 -115.722951 17 3167ft 0kts
02-Jan-20 08:00 43.128199 -115.722950 17 3167ft 0kts
02-Jan-20 08:01 43.128202 -115.722949 17 3167ft 0kts
02-Jan-20 08:02 43.128204 -115.722948 17 3167ft 0kts
02-Jan-20 08:03 43.128206 -115.722947 17 3167ft 0kts
02-Jan-20 08:04 43.128209 -115.722946 17 3167ft 0kts
02-Jan-20 08:05 43.128233 -115.722929 30 3167ft 3kts
02-Jan-20 08:06 43.135214 -115.741445 294 3571ft 102kts
02-Jan-20 08:07 43.131049 -115.767112 107 4957ft 127kts
02-Jan-20 08:08 43.131740 -115.723245 76 6522ft 116kts
02-Jan-20 08:09 43.135357 -115.670048 85 7433ft 146kts
02-Jan-20 08:10 43.138314 -115.617037 83 8771ft 127kts
02-Jan-20 08:11 43.141060 -115.569648 78 9867ft 126kts
02-Jan-20 08:12 43.143848 -115.521330 73 10865ft 133kts
02-Jan-20 08:13 43.147204 -115.462288 76 10967ft 165kts
02-Jan-20 08:14 43.150803 -115.397598 76 10967ft 173kts
02-Jan-20 08:15 43.154468 -115.331675 77 10967ft 174kts
02-Jan-20 08:16 43.158118 -115.265609 77 10978ft 173kts
02-Jan-20 08:17 43.161750 -115.199399 77 10970ft 174kts
02-Jan-20 08:18 43.165320 -115.133216 77 10966ft 174kts
02-Jan-20 08:19 43.168866 -115.067105 77 10963ft 174kts
02-Jan-20 08:20 43.172331 -115.000964 77 10955ft 174kts
02-Jan-20 08:21 43.175842 -114.934625 78 10952ft 173kts
02-Jan-20 08:22 43.179200 -114.868720 78 10936ft 173kts
02-Jan-20 08:23 43.182602 -114.802618 78 10935ft 172kts
02-Jan-20 08:24 43.185959 -114.737228 78 10930ft 172kts
02-Jan-20 08:25 43.189223 -114.671557 78 10928ft 172kts
02-Jan-20 08:26 43.192545 -114.605419 79 10797ft 178kts
02-Jan-20 08:27 43.195730 -114.538868 80 10509ft 166kts
02-Jan-20 08:28 43.198754 -114.477150 80 10244ft 159kts
02-Jan-20 08:29 43.201594 -114.417230 81 9986ft 155kts
02-Jan-20 08:30 43.204371 -114.358498 82 9733ft 153kts
02-Jan-20 08:31 43.215327 -114.305689 31 9487ft 141kts
02-Jan-20 08:32 43.246549 -114.272897 33 9250ft 140kts
02-Jan-20 08:33 43.277277 -114.240566 34 9023ft 139kts
02-Jan-20 08:34 43.308075 -114.208162 34 8793ft 139kts
02-Jan-20 08:35 43.339789 -114.180597 357 8577ft 132kts
02-Jan-20 08:36 43.374501 -114.201800 331 8466ft 150kts
02-Jan-20 08:37 43.414556 -114.229516 332 7489ft 150kts
02-Jan-20 08:38 43.442704 -114.249048 332 6666ft 91kts
02-Jan-20 08:39 43.465184 -114.263743 332 6083ft 93kts
02-Jan-20 08:40 43.486830 -114.279831 331 5498ft 82kts
02-Jan-20 08:41 43.501702 -114.293624 324 5306ft 15kts
02-Jan-20 08:42 43.503581 -114.296572 208 5312ft 8kts
02-Jan-20 08:43 43.500440 -114.293828 144 5308ft 13kts
02-Jan-20 08:44 43.498485 -114.293679 336 5308ft 8kts
02-Jan-20 08:45 43.498658 -114.293562 60 5308ft 0kts
02-Jan-20 08:46 43.498658 -114.293562 60 5308ft 0kts
02-Jan-20 08:47 43.498658 -114.293562 60 5308ft 0kts
02-Jan-20 08:48 43.498658 -114.293562 60 5308ft 0kts
02-Jan-20 08:49 43.498658 -114.293562 60 5308ft 0kts
02-Jan-20 08:50 43.498658 -114.293562 60 5308ft 0kts
02-Jan-20 08:51 43.498658 -114.293562 60 5308ft 0kts

Navigation Log

Ident Type
Flight plan parsing failed, navigation log unavailable